Time;durP1;ratioP1;P1;durP2;ratioP2;P2;SDS_P1;SDS_P2;PMS_P1;PMS_P2;Temp;Humidity;BMP_temperature;BMP_pressure;BME280_temperature;BME280_humidity;BME280_pressure;Samples;Min_cycle;Max_cycle;Signal;HPM_P1;HPM_P2
2022/09/11 00:02:20;;;;;;;1.17;0.80;;;;;;;;;;5092370;28;20487;-68
2022/09/11 00:04:49;;;;;;;2.43;0.83;;;;;;;;;;5093557;28;20448;-67
2022/09/11 00:07:16;;;;;;;1.57;1.07;;;;;;;;;;5093050;28;20484;-67
2022/09/11 00:09:43;;;;;;;0.97;0.73;;;;;;;;;;5093648;28;20445;-67
2022/09/11 00:12:11;;;;;;;1.40;0.80;;;;;;;;;;5092416;28;20917;-67
2022/09/11 00:14:39;;;;;;;0.93;0.63;;;;;;;;;;5093886;28;20461;-67
2022/09/11 00:17:06;;;;;;;0.80;0.70;;;;;;;;;;5093129;28;20449;-68
2022/09/11 00:19:35;;;;;;;3.17;1.00;;;;;;;;;;5088976;28;20461;-67
2022/09/11 00:22:04;;;;;;;1.97;0.87;;;;;;;;;;5082377;28;20452;-67
2022/09/11 00:24:31;;;;;;;0.80;0.60;;;;;;;;;;5090533;28;20922;-67
2022/09/11 00:26:59;;;;;;;1.73;1.07;;;;;;;;;;5090763;28;20495;-67
2022/09/11 00:29:26;;;;;;;2.27;0.70;;;;;;;;;;5080188;28;20446;-66
2022/09/11 00:31:54;;;;;;;2.60;0.77;;;;;;;;;;5083725;28;20464;-66
2022/09/11 00:34:22;;;;;;;1.10;0.97;;;;;;;;;;5075648;28;20970;-66
2022/09/11 00:36:49;;;;;;;1.13;0.70;;;;;;;;;;5088510;28;20448;-66
2022/09/11 00:39:17;;;;;;;1.00;0.80;;;;;;;;;;5090389;28;20444;-67
2022/09/11 00:41:45;;;;;;;1.03;0.73;;;;;;;;;;5092476;28;20441;-67
2022/09/11 00:44:27;;;;;;;0.70;0.60;;;;;;;;;;5092047;28;20536;-67
2022/09/11 00:46:55;;;;;;;1.30;0.80;;;;;;;;;;5091378;28;20494;-68
2022/09/11 00:49:24;;;;;;;1.90;0.63;;;;;;;;;;5091792;28;20502;-67
2022/09/11 00:51:54;;;;;;;1.10;0.90;;;;;;;;;;5092640;28;20441;-68
2022/09/11 00:54:26;;;;;;;2.40;1.00;;;;;;;;;;5091875;28;20452;-67
2022/09/11 00:56:54;;;;;;;2.30;0.80;;;;;;;;;;5092625;28;20447;-67
2022/09/11 00:59:24;;;;;;;0.90;0.63;;;;;;;;;;5090441;28;20456;-68
2022/09/11 01:01:51;;;;;;;1.73;1.17;;;;;;;;;;5091812;28;20437;-67
2022/09/11 01:04:19;;;;;;;2.00;1.10;;;;;;;;;;5090735;28;20457;-67
2022/09/11 01:06:48;;;;;;;1.10;0.90;;;;;;;;;;5092342;28;20452;-67
2022/09/11 01:09:15;;;;;;;1.50;0.97;;;;;;;;;;5090993;28;20487;-68
2022/09/11 01:11:48;;;;;;;1.00;0.77;;;;;;;;;;5091852;28;20495;-67
2022/09/11 01:14:22;;;;;;;2.60;0.97;;;;;;;;;;5091056;28;20441;-67
2022/09/11 01:16:53;;;;;;;1.27;0.77;;;;;;;;;;5092197;28;20440;-67
2022/09/11 01:19:28;;;;;;;1.20;0.80;;;;;;;;;;5091341;28;20996;-67
2022/09/11 01:22:10;;;;;;;1.10;0.90;;;;;;;;;;5092005;28;20464;-67
2022/09/11 01:24:55;;;;;;;3.23;1.23;;;;;;;;;;5077641;28;20468;-67
2022/09/11 01:27:46;;;;;;;2.60;0.90;;;;;;;;;;5091438;28;20488;-67
2022/09/11 01:30:15;;;;;;;1.30;0.80;;;;;;;;;;5091429;28;20510;-67
2022/09/11 01:32:46;;;;;;;1.30;1.10;;;;;;;;;;5091267;28;20451;-67
2022/09/11 01:35:16;;;;;;;2.50;0.80;;;;;;;;;;5091201;28;20457;-67
2022/09/11 01:37:48;;;;;;;1.00;0.80;;;;;;;;;;5091696;28;20447;-67
2022/09/11 01:40:18;;;;;;;1.50;0.90;;;;;;;;;;5091225;28;20456;-67
2022/09/11 01:42:48;;;;;;;1.10;0.90;;;;;;;;;;5090995;28;20441;-68
2022/09/11 01:45:16;;;;;;;1.90;1.10;;;;;;;;;;5090414;28;20446;-67
2022/09/11 01:47:44;;;;;;;0.90;0.80;;;;;;;;;;5091562;28;20530;-67
2022/09/11 01:50:13;;;;;;;3.93;0.70;;;;;;;;;;5090177;28;20948;-67
2022/09/11 01:52:42;;;;;;;1.50;1.20;;;;;;;;;;5091451;28;20865;-67
2022/09/11 01:55:10;;;;;;;1.17;0.87;;;;;;;;;;5090747;28;20448;-67
2022/09/11 01:57:41;;;;;;;1.80;1.03;;;;;;;;;;5091934;28;20456;-67
2022/09/11 02:00:12;;;;;;;1.60;0.90;;;;;;;;;;5090356;28;20439;-67
2022/09/11 02:02:40;;;;;;;1.33;1.10;;;;;;;;;;5090806;28;20468;-67
2022/09/11 02:05:09;;;;;;;1.70;1.03;;;;;;;;;;5090605;28;20449;-67
2022/09/11 02:07:39;;;;;;;1.23;0.93;;;;;;;;;;5091065;28;20480;-67
2022/09/11 02:10:08;;;;;;;2.30;0.97;;;;;;;;;;5090582;28;20449;-67
2022/09/11 02:12:39;;;;;;;1.70;1.10;;;;;;;;;;5090605;28;20444;-68
2022/09/11 02:15:08;;;;;;;1.20;0.90;;;;;;;;;;5089827;28;20444;-68
2022/09/11 02:17:41;;;;;;;1.17;0.87;;;;;;;;;;5090975;28;20464;-67
2022/09/11 02:20:09;;;;;;;2.10;1.23;;;;;;;;;;5090497;28;20524;-68
2022/09/11 02:22:37;;;;;;;0.80;0.60;;;;;;;;;;5090591;28;20480;-68
2022/09/11 02:25:04;;;;;;;1.23;0.97;;;;;;;;;;5089944;28;20456;-67
2022/09/11 02:27:32;;;;;;;1.03;0.90;;;;;;;;;;5090292;28;20508;-68
2022/09/11 02:30:00;;;;;;;1.57;1.10;;;;;;;;;;5090350;28;20997;-68
2022/09/11 02:32:28;;;;;;;1.93;1.83;;;;;;;;;;5090479;28;20463;-68
2022/09/11 02:34:57;;;;;;;1.30;1.20;;;;;;;;;;5090441;28;20460;-68
2022/09/11 02:37:32;;;;;;;1.10;1.00;;;;;;;;;;5089768;28;20456;-68
2022/09/11 02:40:13;;;;;;;2.33;0.97;;;;;;;;;;5090515;28;20444;-67
2022/09/11 02:42:45;;;;;;;3.83;1.00;;;;;;;;;;5079220;28;20441;-68
2022/09/11 02:45:17;;;;;;;4.73;1.27;;;;;;;;;;5090033;28;20459;-68
2022/09/11 02:47:48;;;;;;;0.97;0.77;;;;;;;;;;5090775;28;20445;-67
2022/09/11 02:50:22;;;;;;;0.90;0.63;;;;;;;;;;5088805;28;20941;-68
2022/09/11 02:52:57;;;;;;;1.77;1.10;;;;;;;;;;5090367;28;20440;-68
2022/09/11 02:55:25;;;;;;;2.50;0.87;;;;;;;;;;5089677;28;20944;-68
2022/09/11 02:57:58;;;;;;;2.00;1.40;;;;;;;;;;5090729;28;20814;-68
2022/09/11 03:00:25;;;;;;;1.40;1.00;;;;;;;;;;5089496;28;20452;-68
2022/09/11 03:02:53;;;;;;;1.03;0.80;;;;;;;;;;5089767;28;20798;-67
2022/09/11 03:05:22;;;;;;;2.57;1.07;;;;;;;;;;5090196;28;20537;-68
2022/09/11 03:07:49;;;;;;;1.80;1.20;;;;;;;;;;5090124;28;20456;-68
2022/09/11 03:10:16;;;;;;;3.73;0.90;;;;;;;;;;5089348;28;20449;-68
2022/09/11 03:12:43;;;;;;;0.80;0.70;;;;;;;;;;5089791;28;20452;-68
2022/09/11 03:15:11;;;;;;;2.83;1.00;;;;;;;;;;5089717;28;20937;-67
2022/09/11 03:17:38;;;;;;;1.03;0.93;;;;;;;;;;5090342;28;20932;-68
2022/09/11 03:20:06;;;;;;;2.07;1.40;;;;;;;;;;5089393;28;20455;-67
2022/09/11 03:22:34;;;;;;;3.63;1.13;;;;;;;;;;5089870;28;20449;-68
2022/09/11 03:25:02;;;;;;;1.23;0.90;;;;;;;;;;5090592;28;20445;-68
2022/09/11 03:27:29;;;;;;;2.40;1.50;;;;;;;;;;5092181;28;20504;-68
2022/09/11 03:29:57;;;;;;;1.70;1.30;;;;;;;;;;5093886;28;20512;-68
2022/09/11 03:32:24;;;;;;;2.97;1.23;;;;;;;;;;5092943;28;20958;-68
2022/09/11 03:34:51;;;;;;;3.33;2.00;;;;;;;;;;5093746;28;20458;-68
2022/09/11 03:37:19;;;;;;;1.60;1.10;;;;;;;;;;5093460;28;20471;-68
2022/09/11 03:39:48;;;;;;;2.03;1.40;;;;;;;;;;5093759;28;20544;-67
2022/09/11 03:42:15;;;;;;;1.60;1.20;;;;;;;;;;5092698;28;20498;-68
2022/09/11 03:44:44;;;;;;;1.67;1.20;;;;;;;;;;5093734;28;20460;-68
2022/09/11 03:47:11;;;;;;;1.63;1.40;;;;;;;;;;5093169;28;20445;-68
2022/09/11 03:49:39;;;;;;;1.50;1.20;;;;;;;;;;5093914;28;20483;-68
2022/09/11 03:52:06;;;;;;;1.30;1.10;;;;;;;;;;5092570;28;20528;-67
2022/09/11 03:54:34;;;;;;;2.20;1.53;;;;;;;;;;5093910;28;20452;-68
2022/09/11 03:57:02;;;;;;;1.87;1.40;;;;;;;;;;5080331;28;20457;-68
2022/09/11 03:59:29;;;;;;;1.50;1.10;;;;;;;;;;5093770;28;20444;-68
2022/09/11 04:01:57;;;;;;;1.73;1.60;;;;;;;;;;5092280;28;20464;-67
2022/09/11 04:04:24;;;;;;;2.03;1.77;;;;;;;;;;5092463;28;21180;-70
2022/09/11 04:06:51;;;;;;;1.77;1.33;;;;;;;;;;5093294;28;20445;-68
2022/09/11 04:09:18;;;;;;;1.43;1.30;;;;;;;;;;5092735;28;20485;-68
2022/09/11 04:11:45;;;;;;;1.60;1.33;;;;;;;;;;5092797;28;20451;-67
2022/09/11 04:14:14;;;;;;;2.00;1.50;;;;;;;;;;5092433;28;20455;-68
2022/09/11 04:16:42;;;;;;;3.50;1.40;;;;;;;;;;5093543;28;20449;-68
2022/09/11 04:19:10;;;;;;;1.53;1.33;;;;;;;;;;5092538;28;20852;-68
2022/09/11 04:21:38;;;;;;;2.50;1.40;;;;;;;;;;5093371;28;20442;-68
2022/09/11 04:24:05;;;;;;;1.40;1.23;;;;;;;;;;5092604;28;20488;-66
2022/09/11 04:26:33;;;;;;;5.53;1.80;;;;;;;;;;5093030;28;20491;-68
2022/09/11 04:29:00;;;;;;;3.57;1.60;;;;;;;;;;5092596;28;20993;-68
2022/09/11 04:31:30;;;;;;;2.03;1.70;;;;;;;;;;5092466;28;20476;-68
2022/09/11 04:33:58;;;;;;;2.57;1.77;;;;;;;;;;5092093;28;20800;-68
2022/09/11 04:36:25;;;;;;;2.40;1.67;;;;;;;;;;5092735;28;20445;-69
2022/09/11 04:38:55;;;;;;;2.30;1.70;;;;;;;;;;5092104;28;20480;-68
2022/09/11 04:41:22;;;;;;;3.40;1.90;;;;;;;;;;5092285;28;20445;-68
2022/09/11 04:43:49;;;;;;;2.13;1.93;;;;;;;;;;5092352;28;20441;-68
2022/09/11 04:46:18;;;;;;;2.50;1.67;;;;;;;;;;5092065;28;20808;-68
2022/09/11 04:48:46;;;;;;;2.40;2.13;;;;;;;;;;5092143;28;20601;-68
2022/09/11 04:51:19;;;;;;;6.00;1.60;;;;;;;;;;5091857;28;20483;-68
2022/09/11 04:53:47;;;;;;;2.30;1.87;;;;;;;;;;5089594;28;20433;-68
2022/09/11 04:56:14;;;;;;;4.23;2.20;;;;;;;;;;5091994;28;20921;-68
2022/09/11 04:58:42;;;;;;;2.10;1.70;;;;;;;;;;5092902;28;20484;-68
2022/09/11 05:01:09;;;;;;;2.43;2.13;;;;;;;;;;5086513;28;20445;-68
2022/09/11 05:03:37;;;;;;;6.10;1.80;;;;;;;;;;5091868;28;20461;-67
2022/09/11 05:06:06;;;;;;;1.80;1.70;;;;;;;;;;5091877;28;20459;-68
2022/09/11 05:08:34;;;;;;;3.37;2.17;;;;;;;;;;5092451;28;20481;-68
2022/09/11 05:11:01;;;;;;;2.40;1.87;;;;;;;;;;5091900;28;20451;-68
2022/09/11 05:13:28;;;;;;;2.07;1.87;;;;;;;;;;5091259;28;20860;-69
2022/09/11 05:16:00;;;;;;;3.30;2.13;;;;;;;;;;5092139;28;20456;-68
2022/09/11 05:18:28;;;;;;;2.27;2.00;;;;;;;;;;5090963;28;20441;-68
2022/09/11 05:21:00;;;;;;;2.23;1.97;;;;;;;;;;5091625;28;20449;-67
2022/09/11 05:23:28;;;;;;;2.50;2.20;;;;;;;;;;5082005;28;20481;-68
2022/09/11 05:25:59;;;;;;;2.67;2.13;;;;;;;;;;5091855;28;20556;-68
2022/09/11 05:28:26;;;;;;;3.17;2.50;;;;;;;;;;5091260;28;20876;-67
2022/09/11 05:30:54;;;;;;;2.50;2.20;;;;;;;;;;5091654;28;20763;-68
2022/09/11 05:33:22;;;;;;;3.03;1.83;;;;;;;;;;5090842;28;20494;-68
2022/09/11 05:35:49;;;;;;;2.80;1.73;;;;;;;;;;5091093;28;20449;-68
2022/09/11 05:38:17;;;;;;;3.80;2.40;;;;;;;;;;5091360;28;20544;-68
2022/09/11 05:40:47;;;;;;;3.07;2.40;;;;;;;;;;5091286;28;20904;-68
2022/09/11 05:43:14;;;;;;;2.07;1.73;;;;;;;;;;5090916;28;20452;-67
2022/09/11 05:45:41;;;;;;;2.40;1.77;;;;;;;;;;5091727;28;20453;-67
2022/09/11 05:48:09;;;;;;;2.17;1.97;;;;;;;;;;5091049;28;20453;-67
2022/09/11 05:50:36;;;;;;;1.87;1.77;;;;;;;;;;5090341;28;20481;-68
2022/09/11 05:53:04;;;;;;;2.40;2.13;;;;;;;;;;5090810;28;20441;-67
2022/09/11 05:55:34;;;;;;;2.50;2.30;;;;;;;;;;5090686;28;20485;-68
2022/09/11 05:58:02;;;;;;;2.57;1.90;;;;;;;;;;5091645;28;20491;-68
2022/09/11 06:00:30;;;;;;;2.60;2.30;;;;;;;;;;5090144;28;20948;-68
2022/09/11 06:02:57;;;;;;;2.10;1.90;;;;;;;;;;5090428;28;20440;-68
2022/09/11 06:05:25;;;;;;;4.13;2.57;;;;;;;;;;5090235;28;20471;-68
2022/09/11 06:07:52;;;;;;;3.57;2.13;;;;;;;;;;5090797;28;21025;-68
2022/09/11 06:10:19;;;;;;;3.93;2.43;;;;;;;;;;5090292;28;20576;-68
2022/09/11 06:12:46;;;;;;;2.97;2.07;;;;;;;;;;5090827;28;20452;-68
2022/09/11 06:15:14;;;;;;;4.90;2.60;;;;;;;;;;5090341;28;20459;-68
2022/09/11 06:17:41;;;;;;;2.27;2.07;;;;;;;;;;5090356;28;20448;-67
2022/09/11 06:20:11;;;;;;;3.70;2.73;;;;;;;;;;5090375;28;20453;-67
2022/09/11 06:22:38;;;;;;;2.53;2.00;;;;;;;;;;5090455;28;20445;-68
2022/09/11 06:25:06;;;;;;;2.40;2.20;;;;;;;;;;5090397;28;20448;-68
2022/09/11 06:27:33;;;;;;;2.60;2.03;;;;;;;;;;5090067;28;20487;-68
2022/09/11 06:30:00;;;;;;;2.90;2.07;;;;;;;;;;5090508;28;20948;-68
2022/09/11 06:32:29;;;;;;;3.00;2.70;;;;;;;;;;5089350;28;20460;-68
2022/09/11 06:34:57;;;;;;;3.30;2.70;;;;;;;;;;5090792;28;20459;-68
2022/09/11 06:37:24;;;;;;;2.80;2.13;;;;;;;;;;5089782;28;20459;-68
2022/09/11 06:39:52;;;;;;;4.57;3.23;;;;;;;;;;5090994;28;20456;-68
2022/09/11 06:42:19;;;;;;;3.43;3.13;;;;;;;;;;5089852;28;20449;-68
2022/09/11 06:44:46;;;;;;;2.57;2.37;;;;;;;;;;5090913;28;20812;-68
2022/09/11 06:47:13;;;;;;;3.43;2.53;;;;;;;;;;5090275;28;20448;-67
2022/09/11 06:49:41;;;;;;;2.80;2.50;;;;;;;;;;5090774;28;20947;-67
2022/09/11 06:52:09;;;;;;;3.37;2.70;;;;;;;;;;5084212;28;20456;-67
2022/09/11 06:54:36;;;;;;;3.20;2.43;;;;;;;;;;5084557;28;20974;-68
2022/09/11 06:57:03;;;;;;;3.83;3.43;;;;;;;;;;5090305;28;20449;-69
2022/09/11 06:59:30;;;;;;;4.10;2.50;;;;;;;;;;5090105;28;20459;-68
2022/09/11 07:01:59;;;;;;;5.07;2.47;;;;;;;;;;5093628;28;20448;-68
2022/09/11 07:04:27;;;;;;;3.63;3.17;;;;;;;;;;5093704;28;20460;-68
2022/09/11 07:06:56;;;;;;;3.73;2.73;;;;;;;;;;5094981;28;20445;-68
2022/09/11 07:09:23;;;;;;;3.30;2.73;;;;;;;;;;5093665;28;20472;-68
2022/09/11 07:11:50;;;;;;;2.83;2.63;;;;;;;;;;5094230;28;20815;-68
2022/09/11 07:14:20;;;;;;;2.87;2.57;;;;;;;;;;5093769;28;20448;-68
2022/09/11 07:16:48;;;;;;;4.80;2.90;;;;;;;;;;5094790;28;20483;-67
2022/09/11 07:19:17;;;;;;;2.83;2.53;;;;;;;;;;5092844;28;20502;-68
2022/09/11 07:21:44;;;;;;;4.60;2.80;;;;;;;;;;5094051;28;20498;-67
2022/09/11 07:24:13;;;;;;;3.37;2.83;;;;;;;;;;5093209;28;20445;-67
2022/09/11 07:26:40;;;;;;;5.53;3.27;;;;;;;;;;5093913;28;20472;-68
2022/09/11 07:29:07;;;;;;;3.73;2.70;;;;;;;;;;5093458;28;20451;-66
2022/09/11 07:31:34;;;;;;;2.53;2.27;;;;;;;;;;5093048;28;20482;-67
2022/09/11 07:34:02;;;;;;;3.60;3.10;;;;;;;;;;5093371;28;20570;-67
2022/09/11 07:36:30;;;;;;;3.80;3.13;;;;;;;;;;5093389;28;20445;-68
2022/09/11 07:38:58;;;;;;;2.60;2.00;;;;;;;;;;5093971;28;20448;-68
2022/09/11 07:41:27;;;;;;;3.73;2.90;;;;;;;;;;5092838;28;20452;-67
2022/09/11 07:43:55;;;;;;;2.93;2.67;;;;;;;;;;5093876;28;20455;-67
2022/09/11 07:46:23;;;;;;;5.13;2.60;;;;;;;;;;5092906;28;20449;-67
2022/09/11 07:48:50;;;;;;;3.90;3.50;;;;;;;;;;5093984;28;20441;-68
2022/09/11 07:51:18;;;;;;;3.87;3.40;;;;;;;;;;5092955;28;21002;-67
2022/09/11 07:53:46;;;;;;;3.53;2.97;;;;;;;;;;5094082;28;20515;-68
2022/09/11 07:56:14;;;;;;;4.27;3.40;;;;;;;;;;5093196;28;20951;-67
2022/09/11 07:58:43;;;;;;;3.47;2.80;;;;;;;;;;5094153;28;20445;-67
2022/09/11 08:01:11;;;;;;;3.30;2.80;;;;;;;;;;5094141;28;20459;-68
2022/09/11 08:03:38;;;;;;;4.17;2.87;;;;;;;;;;5093452;28;20441;-67
2022/09/11 08:06:07;;;;;;;3.37;3.07;;;;;;;;;;5093308;28;20495;-68
2022/09/11 08:08:36;;;;;;;3.70;2.47;;;;;;;;;;5093206;28;20511;-67
2022/09/11 08:11:05;;;;;;;3.77;2.70;;;;;;;;;;5093113;28;20487;-68
2022/09/11 08:13:32;;;;;;;2.87;2.63;;;;;;;;;;5091883;28;20453;-68
2022/09/11 08:16:00;;;;;;;4.87;3.40;;;;;;;;;;5093582;28;20527;-68
2022/09/11 08:18:28;;;;;;;2.83;2.47;;;;;;;;;;5093134;28;20448;-68
2022/09/11 08:21:02;;;;;;;3.43;2.97;;;;;;;;;;5093458;28;20820;-68
2022/09/11 08:23:30;;;;;;;2.73;2.53;;;;;;;;;;5085222;28;20452;-67
2022/09/11 08:25:58;;;;;;;3.53;3.10;;;;;;;;;;5092870;28;20457;-68
2022/09/11 08:28:25;;;;;;;3.83;3.23;;;;;;;;;;5092470;28;20449;-67
2022/09/11 08:30:57;;;;;;;4.27;3.87;;;;;;;;;;5092664;28;20484;-67
2022/09/11 08:33:25;;;;;;;4.60;3.10;;;;;;;;;;5092093;28;20517;-67
2022/09/11 08:35:52;;;;;;;5.33;3.60;;;;;;;;;;5093134;28;20460;-68
2022/09/11 08:38:19;;;;;;;4.57;3.10;;;;;;;;;;5092508;28;20452;-68
2022/09/11 08:40:47;;;;;;;3.20;2.90;;;15.50;99.90;;;;;;5092147;28;20826;-68
2022/09/11 08:43:21;;;;;;;3.50;3.20;;;19.00;1.00;;;;;;5091819;28;20444;-67
2022/09/11 08:45:51;;;;;;;3.80;3.47;;;18.90;99.90;;;;;;5080649;28;20440;-68
2022/09/11 08:48:21;;;;;;;4.97;3.17;;;18.50;99.90;;;;;;5091812;28;20502;-67
2022/09/11 08:50:50;;;;;;;3.67;3.27;;;;;;;;;;5092059;28;20539;-68
2022/09/11 08:53:19;;;;;;;7.70;3.00;;;;;;;;;;5091427;28;20463;-67
2022/09/11 08:55:47;;;;;;;3.40;3.10;;;;;;;;;;5092501;28;20444;-68
2022/09/11 08:58:17;;;;;;;5.03;3.43;;;;;;;;;;5091865;28;20823;-67
2022/09/11 09:00:47;;;;;;;3.33;3.03;;;;;;;;;;5092389;28;20449;-68
2022/09/11 09:03:31;;;;;;;3.90;2.70;;;;;;;;;;5091180;28;20449;-68
2022/09/11 09:06:08;;;;;;;3.40;3.10;;;;;;;;;;5092627;28;20486;-68
2022/09/11 09:08:40;;;;;;;3.37;2.83;;;;;;;;;;5090975;28;20444;-68
2022/09/11 09:11:14;;;;;;;3.17;2.83;;;;;;;;;;5092704;28;20560;-68
2022/09/11 09:13:48;;;;;;;6.10;3.20;;;;;;;;;;5091072;28;20437;-68
2022/09/11 09:16:22;;;;;;;4.43;3.43;;;;;;;;;;5091263;28;20445;-68
2022/09/11 09:18:51;;;;;;;3.20;2.40;;;;;;;;;;5092137;28;20460;-68
2022/09/11 09:21:23;;;;;;;3.20;2.83;;;;;;;;;;5089664;28;20531;-68
2022/09/11 09:23:52;;;;;;;3.00;2.70;;;;;;;;;;5091922;28;20441;-68
2022/09/11 09:26:19;;;;;;;2.03;1.90;;;;;;;;;;5091175;28;20481;-68
2022/09/11 09:28:47;;;;;;;3.43;3.10;;;;;;;;;;5091512;28;20448;-68
2022/09/11 09:31:16;;;;;;;2.87;2.37;;;;;;;;;;5090692;28;20476;-67
2022/09/11 09:33:46;;;;;;;2.60;2.40;;;;;;;;;;5086850;28;20445;-68
2022/09/11 09:36:16;;;;;;;2.00;1.80;;;;;;;;;;5091173;28;20963;-67
2022/09/11 09:38:45;;;;;;;2.80;2.50;;;;;;;;;;5091078;28;20448;-67
2022/09/11 09:41:22;;;;;;;2.83;2.30;;;;;;;;;;5090611;28;20986;-67
2022/09/11 09:43:55;;;;;;;3.10;2.77;;;;;;;;;;5091434;28;20783;-68
2022/09/11 09:46:25;;;;;;;3.07;2.33;;;;;;;;;;5091168;28;20456;-68
2022/09/11 09:48:52;;;;;;;2.80;2.60;;;;;;;;;;5091534;28;20534;-68
2022/09/11 09:51:19;;;;;;;2.93;2.47;;;;;;;;;;5090050;28;20477;-68
2022/09/11 09:53:49;;;;;;;2.70;2.50;;;;;;;;;;5090712;28;20451;-70
2022/09/11 09:56:19;;;;;;;4.73;3.40;;;;;;;;;;5090193;28;20460;-68
2022/09/11 09:58:50;;;;;;;3.20;2.90;;;;;;;;;;5091198;28;20459;-67
2022/09/11 10:01:37;;;;;;;3.63;2.60;;;;;;;;;;5089614;28;20459;-68
2022/09/11 10:04:11;;;;;;;3.90;2.60;;;;;;;;;;5089582;28;20456;-68
2022/09/11 10:06:38;;;;;;;3.00;2.70;;;;;;;;;;5091369;28;20459;-70
2022/09/11 10:09:07;;;;;;;2.93;2.63;;;;;;;;;;5090794;28;20451;-70
2022/09/11 10:11:34;;;;;;;3.13;2.83;;;;;;;;;;5089150;28;20477;-68
2022/09/11 10:14:01;;;;;;;9.67;2.63;;;;;;;;;;5090951;28;20444;-69
2022/09/11 10:16:31;;;;;;;2.90;2.63;;;;;;;;;;5089891;28;20502;-70
2022/09/11 10:18:59;;;;;;;2.93;2.50;;;;;;;;;;5090857;28;20544;-70
2022/09/11 10:21:28;;;;;;;2.83;2.57;;;;;;;;;;5085793;28;20472;-70
2022/09/11 10:23:56;;;;;;;3.17;2.87;;;;;;;;;;5087748;28;20523;-70
2022/09/11 10:26:27;;;;;;;4.23;2.60;;;;;;;;;;5087870;28;20480;-70
2022/09/11 10:28:55;;;;;;;3.43;3.13;;;;;;;;;;5088300;28;20436;-70
2022/09/11 10:31:23;;;;;;;3.40;3.07;;;;;;;;;;5087139;28;20485;-69
2022/09/11 10:33:55;;;;;;;6.67;4.13;;;;;;;;;;5087978;28;20870;-69
2022/09/11 10:36:23;;;;;;;2.73;2.50;;;;;;;;;;5087586;28;20754;-68
2022/09/11 10:38:51;;;;;;;4.10;3.20;;;;;;;;;;5087670;28;20449;-68
2022/09/11 10:41:21;;;;;;;3.30;3.00;;;;;;;;;;5087133;28;20464;-68
2022/09/11 10:43:51;;;;;;;2.83;2.63;;;;;;;;;;5088402;28;20681;-68
2022/09/11 10:46:26;;;;;;;4.50;3.20;;;;;;;;;;5087276;28;20708;-68
2022/09/11 10:48:54;;;;;;;3.10;2.80;;;;;;;;;;5087922;28;20947;-68
2022/09/11 10:51:22;;;;;;;3.97;3.07;;;;;;;;;;5086524;28;21023;-68
2022/09/11 10:53:55;;;;;;;3.13;2.63;;;;;;;;;;5088445;28;20464;-72
2022/09/11 10:56:23;;;;;;;3.97;2.53;;;;;;;;;;5087762;28;20449;-72
2022/09/11 10:58:53;;;;;;;4.63;3.27;;;;;;;;;;5088615;28;20843;-73
2022/09/11 11:01:20;;;;;;;4.33;2.70;;;18.50;99.90;;;;;;5086554;28;20457;-73
2022/09/11 11:03:47;;;;;;;3.07;2.77;;;21.50;99.90;;;;;;5087830;28;20480;-73
2022/09/11 11:06:22;;;;;;;4.50;2.80;;;;;;;;;;5086726;28;20452;-73
2022/09/11 11:09:05;;;;;;;2.80;2.50;;;;;;;;;;5087397;28;20916;-72
2022/09/11 11:11:39;;;;;;;3.70;2.80;;;;;;;;;;5086146;28;20473;-72
2022/09/11 11:14:15;;;;;;;3.30;3.00;;;;;;;;;;5088584;28;20482;-72
2022/09/11 11:16:46;;;;;;;2.80;2.50;;;;;;;;;;5086157;28;20970;-72
2022/09/11 11:19:23;;;;;;;4.80;2.83;;;;;;;;;;5087507;28;21162;-74
2022/09/11 11:21:58;;;;;;;2.50;2.30;;;21.80;99.90;;;;;;5087029;28;20851;-74
2022/09/11 11:24:39;;;;;;;3.43;3.13;;;21.20;99.90;;;;;;5086764;28;20535;-74
2022/09/11 11:27:28;;;;;;;3.10;2.80;;;20.90;99.90;;;;;;5087877;28;20560;-73
2022/09/11 11:30:08;;;;;;;5.43;3.77;;;20.70;99.90;;;;;;5088034;28;20448;-74
2022/09/11 11:32:45;;;;;;;3.73;3.43;;;;;;;;;;5086398;28;20475;-74
2022/09/11 11:35:19;;;;;;;4.20;3.37;;;;;;;;;;5082089;28;20510;-72
2022/09/11 11:37:47;;;;;;;3.30;2.67;;;;;;;;;;5086930;28;20449;-74
2022/09/11 11:40:17;;;;;;;4.03;3.60;;;;;;;;;;5087186;28;20501;-75
2022/09/11 11:42:47;;;;;;;3.00;2.70;;;;;;;;;;5087717;28;20475;-73
2022/09/11 11:45:21;;;;;;;3.37;3.07;;;;;;;;;;5086491;28;20959;-74
2022/09/11 11:47:50;;;;;;;4.33;3.10;;;20.60;99.90;;;;;;5088806;28;20462;-75
2022/09/11 11:50:26;;;;;;;4.43;2.53;;;21.70;99.90;;;;;;5091252;28;20521;-74
2022/09/11 11:53:02;;;;;;;3.50;3.20;;;21.90;99.90;;;;;;5090348;28;20517;-73
2022/09/11 11:55:39;;;;;;;5.43;2.83;;;22.10;99.90;;;;;;5091333;28;20455;-74
2022/09/11 11:58:08;;;;;;;3.40;2.30;;;;;;;;;;5091269;28;20488;-74
2022/09/11 12:00:39;;;;;;;2.93;2.70;;;;;;;;;;5090637;28;20448;-74
2022/09/11 12:03:10;;;;;;;2.60;2.40;;;;;;;;;;5091784;28;20433;-74
2022/09/11 12:05:39;;;;;;;3.20;2.20;;;;;;;;;;5091254;28;20461;-74
2022/09/11 12:08:11;;;;;;;3.30;2.57;;;;;;;;;;5090805;28;20481;-74
2022/09/11 12:10:39;;;;;;;3.33;2.97;;;;;;;;;;5091591;28;20810;-74
2022/09/11 12:13:08;;;;;;;3.17;2.87;;;;;;;;;;5090494;28;20455;-74
2022/09/11 12:15:37;;;;;;;3.70;3.40;;;;;;;;;;5090904;28;20497;-74
2022/09/11 12:18:05;;;;;;;2.97;2.50;;;;;;;;;;5089627;28;20537;-74
2022/09/11 12:20:42;;;;;;;2.60;2.40;;;;;;;;;;5093790;28;20483;-74
2022/09/11 12:23:24;;;;;;;3.07;2.10;;;;;;;;;;5102446;28;20437;-75
2022/09/11 12:26:05;;;;;;;2.53;2.30;;;;;;;;;;5099891;28;20524;-74
2022/09/11 12:28:34;;;;;;;3.13;2.83;;;;;;;;;;5094740;28;20448;-74
2022/09/11 12:31:07;;;;;;;2.90;2.60;;;;;;;;;;5083258;28;20805;-74
2022/09/11 12:33:54;;;;;;;3.13;2.30;;;;;;;;;;5090593;28;20936;-75
2022/09/11 12:36:24;;;;;;;2.60;2.40;;;;;;;;;;5090085;28;20453;-74
2022/09/11 12:38:54;;;;;;;2.90;2.70;;;;;;;;;;5090744;28;20448;-75
2022/09/11 12:41:24;;;;;;;3.23;2.93;;;;;;;;;;5089875;28;20486;-77
2022/09/11 12:43:52;;;;;;;3.37;3.07;;;;;;;;;;5090904;28;20855;-76
2022/09/11 12:46:38;;;;;;;2.83;2.53;;;;;;;;;;5090322;28;20564;-75
2022/09/11 12:49:11;;;;;;;2.97;2.77;;;;;;;;;;5079826;28;20448;-74
2022/09/11 12:51:41;;;;;;;4.10;3.10;;;;;;;;;;5090049;28;20479;-74
2022/09/11 12:54:14;;;;;;;3.30;3.00;;;;;;;;;;5090918;28;20936;-74
2022/09/11 12:56:46;;;;;;;3.80;2.93;;;;;;;;;;5090498;28;20441;-74
2022/09/11 12:59:22;;;;;;;3.37;2.93;;;;;;;;;;5089891;28;20437;-74
2022/09/11 13:01:49;;;;;;;3.07;2.87;;;;;;;;;;5077010;28;20448;-74
2022/09/11 13:04:19;;;;;;;3.37;3.07;;;;;;;;;;5089630;28;20788;-74
2022/09/11 13:06:47;;;;;;;3.60;3.30;;;;;;;;;;5090356;28;20854;-74
2022/09/11 13:09:20;;;;;;;3.13;2.90;;;;;;;;;;5089265;28;20932;-74
2022/09/11 13:11:48;;;;;;;2.87;2.67;;;;;;;;;;5089198;28;20476;-74
2022/09/11 13:14:34;;;;;;;3.40;3.10;;;;;;;;;;5089420;28;20440;-74
2022/09/11 13:17:02;;;;;;;3.40;3.03;;;;;;;;;;5087987;28;20457;-74
2022/09/11 13:19:34;;;;;;;3.13;2.83;;;;;;;;;;5087297;28;20611;-75
2022/09/11 13:22:01;;;;;;;2.80;2.60;;;;;;;;;;5089457;28;20448;-74
2022/09/11 13:24:30;;;;;;;3.27;2.50;;;;;;;;;;5089223;28;20444;-76
2022/09/11 13:26:59;;;;;;;3.10;2.80;;;;;;;;;;5089884;28;20516;-75
2022/09/11 13:29:30;;;;;;;2.63;2.37;;;;;;;;;;5089566;28;20453;-76
2022/09/11 13:31:58;;;;;;;2.97;2.67;;;;;;;;;;5089360;28;20872;-76
2022/09/11 13:34:26;;;;;;;4.40;3.30;;;;;;;;;;5089227;28;20444;-75
2022/09/11 13:36:55;;;;;;;3.63;2.57;;;;;;;;;;5089808;28;20445;-76
2022/09/11 13:39:23;;;;;;;3.47;2.60;;;;;;;;;;5089021;28;20460;-75
2022/09/11 13:41:53;;;;;;;2.60;2.40;;;;;;;;;;5089324;28;20479;-75
2022/09/11 13:44:30;;;;;;;3.67;3.37;;;;;;;;;;5089069;28;20445;-76
2022/09/11 13:46:59;;;;;;;3.40;2.37;;;;;;;;;;5089643;28;20815;-76
2022/09/11 13:49:30;;;;;;;3.03;2.70;;;;;;;;;;5087922;28;20944;-75
2022/09/11 13:51:58;;;;;;;3.30;2.80;;;;;;;;;;5089030;28;20472;-75
2022/09/11 13:54:27;;;;;;;3.10;2.80;;;;;;;;;;5088867;28;20814;-75
2022/09/11 13:57:12;;;;;;;2.50;2.30;;;;;;;;;;5088792;28;20453;-75
2022/09/11 13:59:44;;;;;;;2.83;2.53;;;;;;;;;;5089042;28;20441;-75
2022/09/11 14:02:36;;;;;;;3.07;2.40;;;;;;;;;;5089163;28;20522;-74
2022/09/11 14:05:09;;;;;;;2.33;2.13;;;;;;;;;;5069716;28;20494;-75
2022/09/11 14:07:44;;;;;;;3.43;2.73;;;;;;;;;;5089761;28;20452;-75
2022/09/11 14:10:18;;;;;;;2.73;2.50;;;;;;;;;;5077062;28;20437;-77
2022/09/11 14:12:48;;;;;;;2.80;2.60;;;;;;;;;;5088391;28;20464;-77
2022/09/11 14:15:21;;;;;;;2.63;2.33;;;;;;;;;;5088793;28;20453;-77
2022/09/11 14:17:48;;;;;;;2.20;2.00;;;;;;;;;;5085195;28;20531;-76
2022/09/11 14:20:21;;;;;;;3.20;2.80;;;;;;;;;;5088336;28;20459;-76
2022/09/11 14:22:53;;;;;;;3.80;3.43;;;;;;;;;;5088019;28;20508;-76
2022/09/11 14:25:21;;;;;;;4.00;3.50;;;;;;;;;;5088802;28;20464;-76
2022/09/11 14:27:48;;;;;;;2.90;2.70;;;;;;;;;;5088848;28;20480;-75
2022/09/11 14:30:26;;;;;;;3.43;2.70;;;;;;;;;;5088411;28;20455;-75
2022/09/11 14:33:06;;;;;;;2.93;2.63;;;;;;;;;;5088477;28;20524;-75
2022/09/11 14:35:33;;;;;;;3.73;3.30;;;;;;;;;;5088263;28;20458;-75
2022/09/11 14:38:02;;;;;;;3.17;2.83;;;;;;;;;;5089017;28;20460;-75
2022/09/11 14:40:29;;;;;;;3.97;2.37;;;;;;;;;;5088311;28;20448;-75
2022/09/11 14:42:56;;;;;;;2.80;2.60;;;;;;;;;;5088359;28;20464;-75
2022/09/11 14:45:24;;;;;;;2.87;2.67;;;;;;;;;;5087719;28;20444;-75
2022/09/11 14:47:54;;;;;;;2.30;2.10;;;;;;;;;;5087921;28;20455;-75
2022/09/11 14:50:23;;;;;;;2.47;2.27;;;;;;;;;;5087612;28;20444;-75
2022/09/11 14:52:50;;;;;;;2.50;2.23;;;;;;;;;;5088279;28;20480;-75
2022/09/11 14:55:20;;;;;;;2.80;2.50;;;;;;;;;;5087698;28;20627;-75